Time;durP1;ratioP1;P1;durP2;ratioP2;P2;SDS_P1;SDS_P2;PMS_P1;PMS_P2;Temp;Humidity;BMP_temperature;BMP_pressure;BME280_temperature;BME280_humidity;BME280_pressure;Samples;Min_cycle;Max_cycle;Signal;HPM_P1;HPM_P2
2023/10/25 00:01:26;;;;;;;4.80;2.70;;;;;;;22.43;59.17;101173.70;107260;1256;25346;-66
2023/10/25 00:03:53;;;;;;;4.60;2.10;;;;;;;22.43;59.06;101169.45;106800;1266;25424;-66
2023/10/25 00:06:20;;;;;;;5.40;2.10;;;;;;;22.43;59.29;101163.23;107094;1256;22630;-66
2023/10/25 00:08:48;;;;;;;6.00;2.20;;;;;;;22.43;59.44;101160.55;106819;1269;25337;-67
2023/10/25 00:11:16;;;;;;;5.80;2.60;;;;;;;22.44;59.54;101161.63;107180;1256;25365;-66
2023/10/25 00:13:42;;;;;;;9.50;2.50;;;;;;;22.44;59.51;101157.52;107101;1264;25335;-67
2023/10/25 00:16:10;;;;;;;4.00;1.90;;;;;;;22.44;59.53;101159.14;107047;1259;22541;-67
2023/10/25 00:18:36;;;;;;;4.60;2.00;;;;;;;22.44;59.44;101159.13;107068;1263;22522;-67
2023/10/25 00:21:04;;;;;;;8.50;2.40;;;;;;;22.44;59.42;101150.95;107054;1266;25424;-66
2023/10/25 00:23:30;;;;;;;4.40;2.00;;;;;;;22.44;59.12;101147.59;107115;1256;25334;-67
2023/10/25 00:25:58;;;;;;;4.40;2.00;;;;;;;22.45;59.00;101136.77;107150;1260;25385;-66
2023/10/25 00:28:25;;;;;;;4.60;2.70;;;;;;;22.42;59.03;101129.39;107121;1256;25498;-67
2023/10/25 00:30:52;;;;;;;6.10;2.30;;;;;;;22.42;59.11;101128.67;107037;1260;25355;-66
2023/10/25 00:33:19;;;;;;;3.80;2.10;;;;;;;22.42;59.12;101127.25;107077;1268;25366;-67
2023/10/25 00:35:46;;;;;;;2.90;2.00;;;;;;;22.48;59.01;101126.34;107090;1264;25416;-66
2023/10/25 00:38:13;;;;;;;9.10;2.50;;;;;;;22.51;58.93;101124.19;107017;1265;25408;-66
2023/10/25 00:40:40;;;;;;;4.90;2.50;;;;;;;22.47;59.20;101125.33;107159;1266;25327;-66
2023/10/25 00:43:20;;;;;;;4.80;2.70;;;;;;;22.49;58.97;101119.67;107075;1260;25397;-67
2023/10/25 00:46:11;;;;;;;4.50;2.20;;;;;;;22.52;58.84;101113.11;107101;1256;22525;-67
2023/10/25 00:48:48;;;;;;;6.40;2.00;;;;;;;22.54;58.83;101112.69;107183;1253;25347;-67
2023/10/25 00:51:16;;;;;;;4.40;1.90;;;;;;;22.55;58.84;101106.98;106571;1259;25536;-67
2023/10/25 00:53:48;;;;;;;5.40;2.30;;;;;;;22.55;58.67;101104.48;107155;1262;25348;-67
2023/10/25 00:56:16;;;;;;;7.20;2.40;;;;;;;22.55;58.66;101099.32;107124;1256;25277;-66
2023/10/25 00:58:45;;;;;;;7.20;2.20;;;;;;;22.55;58.73;101096.66;107037;1263;22527;-67
2023/10/25 01:01:12;;;;;;;4.70;1.90;;;;;;;22.56;58.69;101087.23;107120;1269;25376;-67
2023/10/25 01:03:40;;;;;;;7.80;2.10;;;;;;;22.57;58.58;101082.26;107078;1259;25351;-67
2023/10/25 01:06:07;;;;;;;8.00;3.10;;;;;;;22.56;58.50;101087.04;107142;1254;25340;-67
2023/10/25 01:08:34;;;;;;;8.20;3.00;;;;;;;22.56;58.68;101087.59;106991;1266;25337;-67
2023/10/25 01:11:02;;;;;;;6.00;2.50;;;;;;;22.57;58.68;101090.16;106797;1262;25498;-66
2023/10/25 01:13:29;;;;;;;6.10;2.70;;;;;;;22.57;58.73;101085.42;106859;1267;22542;-68
2023/10/25 01:15:56;;;;;;;5.90;2.10;;;;;;;22.57;58.83;101082.08;107047;1269;22530;-66
2023/10/25 01:18:23;;;;;;;4.20;1.70;;;;;;;22.57;58.75;101087.16;107215;1273;25337;-67
2023/10/25 01:20:51;;;;;;;3.90;2.20;;;;;;;22.57;58.63;101081.33;107185;1259;25340;-67
2023/10/25 01:23:18;;;;;;;7.80;2.30;;;;;;;22.59;58.75;101076.30;107192;1256;25530;-67
2023/10/25 01:25:45;;;;;;;7.20;2.30;;;;;;;22.59;58.95;101072.77;107103;1266;25421;-66
2023/10/25 01:28:12;;;;;;;10.00;3.00;;;;;;;22.59;59.16;101071.50;106990;1262;25399;-66
2023/10/25 01:30:40;;;;;;;8.80;2.50;;;;;;;22.60;59.20;101074.30;107090;1261;25386;-67
2023/10/25 01:33:07;;;;;;;4.70;2.00;;;;;;;22.60;59.07;101074.08;106892;1262;25385;-67
2023/10/25 01:35:34;;;;;;;3.70;2.10;;;;;;;22.60;58.97;101075.84;106749;1272;25373;-67
2023/10/25 01:38:02;;;;;;;8.50;2.90;;;;;;;22.60;58.83;101072.86;107061;1257;25396;-67
2023/10/25 01:40:30;;;;;;;5.40;2.20;;;;;;;22.59;58.88;101073.27;107026;1266;25363;-66
2023/10/25 01:42:57;;;;;;;5.60;2.20;;;;;;;22.60;58.87;101065.77;107095;1260;24093;-67
2023/10/25 01:45:24;;;;;;;6.20;2.30;;;;;;;22.60;58.86;101061.73;107109;1266;25361;-67
2023/10/25 01:47:51;;;;;;;8.50;2.30;;;;;;;22.59;58.80;101064.97;107090;1263;25498;-67
2023/10/25 01:50:19;;;;;;;3.80;2.00;;;;;;;22.58;58.64;101068.56;106968;1263;25424;-67
2023/10/25 01:52:47;;;;;;;4.40;2.10;;;;;;;22.58;58.58;101071.22;107132;1256;22520;-67
2023/10/25 01:55:14;;;;;;;4.60;1.90;;;;;;;22.59;58.59;101065.67;107192;1257;22527;-66
2023/10/25 01:57:42;;;;;;;5.00;2.00;;;;;;;22.60;58.55;101059.09;106834;1267;25431;-67
2023/10/25 02:00:10;;;;;;;5.00;2.10;;;;;;;22.61;58.71;101056.53;107216;1257;25431;-68
2023/10/25 02:02:40;;;;;;;11.00;2.30;;;;;;;22.61;58.75;101050.36;106754;1260;25363;-67
2023/10/25 02:05:07;;;;;;;6.00;2.10;;;;;;;22.61;58.64;101045.39;106987;1266;25340;-67
2023/10/25 02:07:35;;;;;;;5.60;2.60;;;;;;;22.62;58.55;101042.52;106726;1273;25409;-66
2023/10/25 02:10:03;;;;;;;7.20;2.40;;;;;;;22.62;58.52;101047.09;106818;1269;25432;-66
2023/10/25 02:12:30;;;;;;;9.80;2.60;;;;;;;22.63;58.74;101044.70;106923;1266;22548;-67
2023/10/25 02:14:57;;;;;;;6.00;2.40;;;;;;;22.64;58.81;101044.46;106900;1268;25372;-66
2023/10/25 02:17:24;;;;;;;4.70;2.10;;;;;;;22.64;58.89;101043.20;106791;1260;25376;-67
2023/10/25 02:19:51;;;;;;;5.10;2.30;;;;;;;22.65;58.67;101044.05;106900;1273;25605;-68
2023/10/25 02:22:18;;;;;;;4.40;2.10;;;;;;;22.65;58.66;101038.04;106900;1261;25404;-67
2023/10/25 02:24:46;;;;;;;6.40;2.30;;;;;;;22.65;58.81;101034.13;106587;1271;25503;-67
2023/10/25 02:27:13;;;;;;;4.20;2.60;;;;;;;22.67;58.97;101033.37;106872;1267;25355;-67
2023/10/25 02:29:40;;;;;;;4.00;2.10;;;;;;;22.67;58.82;101026.98;106954;1254;25399;-67
2023/10/25 02:32:10;;;;;;;13.60;3.40;;;;;;;22.68;58.84;101019.46;106824;1269;25353;-66
2023/10/25 02:34:38;;;;;;;6.00;2.80;;;;;;;22.69;59.05;101011.45;106824;1263;22539;-66
2023/10/25 02:37:05;;;;;;;5.90;2.40;;;;;;;22.69;59.06;101006.12;106737;1271;25344;-67
2023/10/25 02:39:32;;;;;;;7.20;2.70;;;;;;;22.69;59.12;100999.62;106838;1267;25328;-66
2023/10/25 02:41:59;;;;;;;5.30;2.00;;;;;;;22.69;59.06;101001.73;106596;1270;25434;-67
2023/10/25 02:44:26;;;;;;;5.30;2.10;;;;;;;22.69;59.14;100997.15;106766;1264;25352;-66
2023/10/25 02:46:57;;;;;;;7.80;2.80;;;;;;;22.69;59.09;100996.81;107069;1267;25389;-66
2023/10/25 02:49:24;;;;;;;10.70;2.80;;;;;;;22.68;59.08;100995.41;106564;1266;436352;-67
2023/10/25 02:51:51;;;;;;;10.90;2.20;;;;;;;22.68;59.12;101001.25;107167;1255;23865;-68
2023/10/25 02:54:18;;;;;;;4.60;2.00;;;;;;;22.69;59.15;101007.55;106841;1265;22549;-66
2023/10/25 02:56:46;;;;;;;7.50;2.30;;;;;;;22.71;59.15;101003.75;107205;1254;25356;-68
2023/10/25 02:59:13;;;;;;;3.90;2.10;;;;;;;22.71;59.13;101001.98;107087;1264;25369;-66
2023/10/25 03:01:40;;;;;;;5.90;2.80;;;;;;;22.71;59.10;100998.09;107125;1254;25339;-66
2023/10/25 03:04:07;;;;;;;5.60;2.50;;;;;;;22.71;59.09;101000.15;107015;1266;25355;-67
2023/10/25 03:06:35;;;;;;;9.30;2.50;;;;;;;22.71;59.09;101004.58;107114;1263;25456;-67
2023/10/25 03:09:02;;;;;;;9.30;2.40;;;;;;;22.72;59.15;101006.31;107104;1257;25359;-67
2023/10/25 03:11:29;;;;;;;6.40;2.00;;;;;;;22.72;59.09;101002.77;107170;1262;25424;-67
2023/10/25 03:13:56;;;;;;;9.00;2.10;;;;;;;22.72;59.22;101003.46;106797;1273;25338;-67
2023/10/25 03:16:23;;;;;;;8.10;3.00;;;;;;;22.73;59.23;101008.04;107156;1256;25424;-66
2023/10/25 03:18:50;;;;;;;4.60;2.30;;;;;;;22.72;59.15;101003.84;106839;1267;22547;-68
2023/10/25 03:21:17;;;;;;;9.60;2.40;;;;;;;22.72;59.26;100997.62;106777;1260;25369;-66
2023/10/25 03:23:45;;;;;;;4.50;2.20;;;;;;;22.72;59.18;100994.08;107123;1257;25500;-66
2023/10/25 03:26:12;;;;;;;3.80;1.90;;;;;;;22.73;59.18;100985.91;107219;1254;25469;-66
2023/10/25 03:28:39;;;;;;;7.30;2.20;;;;;;;22.73;59.25;100986.63;107124;1254;25405;-66
2023/10/25 03:31:08;;;;;;;7.70;2.50;;;;;;;22.73;59.49;100989.03;106368;1266;1016235;-66
2023/10/25 03:33:36;;;;;;;6.30;2.50;;;;;;;22.75;59.35;100986.48;107032;1258;25484;-67
2023/10/25 03:36:04;;;;;;;7.10;2.60;;;;;;;22.75;59.53;100976.94;107069;1255;25338;-67
2023/10/25 03:38:34;;;;;;;4.30;2.10;;;;;;;22.75;59.57;100970.38;106861;1264;25391;-67
2023/10/25 03:41:05;;;;;;;8.40;3.00;;;;;;;22.76;59.65;100967.09;107042;1267;22534;-66
2023/10/25 03:43:33;;;;;;;8.60;2.60;;;;;;;22.76;59.53;100961.61;107061;1257;25359;-66
2023/10/25 03:46:07;;;;;;;11.40;2.80;;;;;;;22.77;59.65;100957.48;107184;1251;25436;-66
2023/10/25 03:48:36;;;;;;;4.90;2.40;;;;;;;22.78;59.76;100957.61;107206;1254;22628;-66
2023/10/25 03:51:04;;;;;;;6.50;2.50;;;;;;;22.78;59.85;100956.20;106871;1260;25500;-66
2023/10/25 03:53:35;;;;;;;8.20;3.40;;;;;;;22.79;59.80;100958.25;107067;1256;25469;-66
2023/10/25 03:56:02;;;;;;;8.00;2.50;;;;;;;22.80;59.81;100962.09;107057;1254;25337;-67
2023/10/25 03:58:30;;;;;;;4.40;2.70;;;;;;;22.80;59.93;100962.94;106854;1272;25519;-66
2023/10/25 04:01:01;;;;;;;5.10;2.20;;;;;;;22.81;59.93;100965.02;107051;1264;25396;-66
2023/10/25 04:03:28;;;;;;;6.40;2.30;;;;;;;22.80;59.93;100966.29;107089;1251;25338;-66
2023/10/25 04:05:55;;;;;;;7.00;2.50;;;;;;;22.81;59.91;100965.35;106496;1263;25243;-66
2023/10/25 04:08:23;;;;;;;8.00;2.50;;;;;;;22.81;59.83;100962.66;107040;1254;25328;-66
2023/10/25 04:10:54;;;;;;;5.90;2.60;;;;;;;22.81;60.02;100960.72;106892;1257;25366;-67
2023/10/25 04:13:22;;;;;;;5.60;2.60;;;;;;;22.81;60.02;100956.30;106706;1264;25551;-66
2023/10/25 04:16:04;;;;;;;6.80;2.50;;;;;;;22.82;60.03;100956.09;107194;1254;25379;-66
2023/10/25 04:18:32;;;;;;;7.30;2.90;;;;;;;22.83;60.11;100950.02;107118;1270;24352;-67
2023/10/25 04:21:00;;;;;;;4.90;2.10;;;;;;;22.84;60.15;100945.69;107136;1261;25355;-66
2023/10/25 04:23:29;;;;;;;8.50;2.40;;;;;;;22.84;60.15;100939.80;107181;1258;25355;-66
2023/10/25 04:26:22;;;;;;;6.30;2.40;;;;;;;22.84;60.23;100931.69;107176;1254;25306;-67
2023/10/25 04:28:49;;;;;;;5.90;2.20;;;;;;;22.85;60.11;100930.79;106363;1270;22608;-66
2023/10/25 04:31:17;;;;;;;7.10;2.40;;;;;;;22.85;60.17;100930.23;106400;1271;25347;-66
2023/10/25 04:33:45;;;;;;;10.40;3.30;;;;;;;22.85;60.21;100928.64;106393;1260;25356;-66
2023/10/25 04:36:12;;;;;;;9.40;2.30;;;;;;;22.85;60.19;100928.45;106365;1264;25341;-66
2023/10/25 04:38:39;;;;;;;8.60;2.20;;;;;;;22.85;60.12;100924.23;106421;1272;23291;-67
2023/10/25 04:41:06;;;;;;;7.80;3.00;;;;;;;22.86;60.10;100924.32;106388;1265;25355;-66
2023/10/25 04:43:33;;;;;;;8.80;2.80;;;;;;;22.87;60.23;100921.08;106347;1264;25792;-66
2023/10/25 04:46:03;;;;;;;7.90;2.80;;;;;;;22.87;60.18;100918.73;106330;1273;25436;-67
2023/10/25 04:48:30;;;;;;;8.90;2.80;;;;;;;22.87;60.25;100916.09;106375;1260;23898;-66
2023/10/25 04:50:57;;;;;;;8.30;2.30;;;;;;;22.87;60.40;100911.16;106370;1270;25342;-67
2023/10/25 04:53:24;;;;;;;5.60;2.20;;;;;;;22.88;60.50;100910.38;106337;1261;25403;-66
2023/10/25 04:55:52;;;;;;;8.70;2.90;;;;;;;22.89;60.46;100912.44;106383;1261;23263;-66
2023/10/25 04:58:20;;;;;;;12.10;3.30;;;;;;;22.89;60.56;100910.61;106427;1264;25380;-66
2023/10/25 05:00:48;;;;;;;7.80;2.70;;;;;;;22.90;60.29;100909.66;106417;1264;25556;-66
2023/10/25 05:03:15;;;;;;;7.30;2.40;;;;;;;22.91;60.29;100906.27;106441;1264;25406;-67
2023/10/25 05:05:42;;;;;;;8.30;2.90;;;;;;;22.92;60.25;100905.48;106607;1264;25411;-66
2023/10/25 05:08:10;;;;;;;7.30;3.00;;;;;;;22.92;60.35;100909.35;107119;1262;25433;-67
2023/10/25 05:10:38;;;;;;;7.60;2.50;;;;;;;22.93;60.28;100910.35;107146;1250;22525;-66
2023/10/25 05:13:06;;;;;;;9.80;2.60;;;;;;;22.92;60.34;100912.55;107209;1251;25341;-66
2023/10/25 05:15:35;;;;;;;5.70;2.80;;;;;;;22.95;60.34;100916.25;107072;1254;25337;-66
2023/10/25 05:18:03;;;;;;;8.70;2.40;;;;;;;22.96;60.37;100919.19;107031;1254;24247;-66
2023/10/25 05:20:31;;;;;;;8.00;2.70;;;;;;;22.97;60.44;100915.05;107127;1250;22553;-66
2023/10/25 05:22:58;;;;;;;9.20;2.80;;;;;;;22.98;60.61;100909.13;106356;1254;1003092;-66
2023/10/25 05:25:25;;;;;;;15.90;3.50;;;;;;;22.99;60.78;100902.88;107185;1254;22545;-66
2023/10/25 05:27:53;;;;;;;8.40;2.50;;;;;;;23.00;60.78;100902.08;107195;1254;22539;-66
2023/10/25 05:30:21;;;;;;;9.70;2.80;;;;;;;23.01;60.91;100891.95;107116;1251;25291;-66
2023/10/25 05:32:48;;;;;;;5.80;2.90;;;;;;;23.02;61.05;100895.02;107039;1251;22546;-67
2023/10/25 05:35:16;;;;;;;7.00;2.80;;;;;;;23.03;61.15;100887.14;107128;1256;22524;-67
2023/10/25 05:37:43;;;;;;;13.50;3.50;;;;;;;23.05;61.11;100884.19;107090;1251;24221;-66
2023/10/25 05:40:11;;;;;;;9.80;3.30;;;;;;;23.05;61.28;100880.27;107197;1258;25348;-65
2023/10/25 05:42:47;;;;;;;9.70;3.60;;;;;;;23.07;61.39;100880.70;107185;1256;25375;-66
2023/10/25 05:45:15;;;;;;;9.90;3.50;;;;;;;23.08;61.39;100878.63;107150;1251;25376;-65
2023/10/25 05:47:43;;;;;;;8.90;3.30;;;;;;;23.09;61.49;100883.34;107101;1251;25338;-66
2023/10/25 05:50:11;;;;;;;9.60;3.60;;;;;;;23.10;61.43;100882.27;106939;1261;22520;-66
2023/10/25 05:52:44;;;;;;;12.80;4.20;;;;;;;23.11;61.39;100879.67;106959;1253;25376;-66
2023/10/25 05:55:14;;;;;;;7.20;3.30;;;;;;;23.13;61.44;100867.90;106894;1257;25422;-66
2023/10/25 05:57:43;;;;;;;8.30;3.70;;;;;;;23.13;61.51;100852.97;107113;1250;25385;-66
2023/10/25 06:00:11;;;;;;;12.30;3.00;;;;;;;23.14;61.39;100852.53;107112;1253;24236;-66
2023/10/25 06:02:37;;;;;;;12.90;4.00;;;;;;;23.15;61.53;100848.80;107069;1254;24497;-66
2023/10/25 06:05:05;;;;;;;9.30;3.10;;;;;;;23.16;61.67;100845.88;107148;1257;25525;-66
2023/10/25 06:07:37;;;;;;;10.40;3.40;;;;;;;23.18;61.59;100850.35;107117;1252;24297;-66
2023/10/25 06:10:06;;;;;;;9.90;3.10;;;;;;;23.19;61.73;100851.83;107109;1254;25331;-67
2023/10/25 06:12:34;;;;;;;10.70;4.50;;;;;;;23.21;61.71;100856.66;106868;1256;22619;-66
2023/10/25 06:15:02;;;;;;;9.30;3.30;;;;;;;23.22;61.71;100851.65;107250;1263;22531;-66
2023/10/25 06:17:29;;;;;;;15.10;3.70;;;;;;;23.23;61.85;100845.04;107094;1251;25356;-66
2023/10/25 06:19:56;;;;;;;8.20;3.30;;;;;;;23.23;61.83;100839.16;107130;1255;25435;-66
2023/10/25 06:22:23;;;;;;;6.90;3.50;;;;;;;23.24;61.93;100830.28;106948;1255;25370;-66
2023/10/25 06:24:50;;;;;;;9.40;4.20;;;;;;;23.25;61.95;100827.17;106874;1264;25351;-66
2023/10/25 06:27:17;;;;;;;7.90;3.10;;;;;;;23.26;61.98;100822.09;107266;1252;25351;-66
2023/10/25 06:29:45;;;;;;;7.50;3.50;;;;;;;23.28;62.04;100819.00;107137;1260;25347;-66
2023/10/25 06:32:12;;;;;;;12.70;4.60;;;;;;;23.29;62.03;100815.89;107035;1265;25500;-66
2023/10/25 06:34:39;;;;;;;11.00;4.20;;;;;;;23.30;62.07;100810.69;107113;1263;25386;-66
2023/10/25 06:37:07;;;;;;;11.00;4.00;;;;;;;23.31;62.08;100810.95;106970;1255;25424;-66
2023/10/25 06:39:34;;;;;;;10.50;3.70;;;;;;;23.33;61.80;100809.63;106628;1257;22660;-67
2023/10/25 06:42:02;;;;;;;8.80;3.70;;;;;;;23.35;61.95;100812.29;106903;1253;22527;-66
2023/10/25 06:44:30;;;;;;;10.40;4.00;;;;;;;23.36;61.95;100814.48;106681;1259;25357;-66
2023/10/25 06:46:57;;;;;;;9.30;3.50;;;;;;;23.38;61.93;100807.60;106679;1266;25425;-66
2023/10/25 06:49:25;;;;;;;13.10;4.50;;;;;;;23.40;61.89;100799.70;107126;1254;25385;-67
2023/10/25 06:51:52;;;;;;;9.00;3.60;;;;;;;23.42;62.01;100792.44;106719;1266;23863;-67
2023/10/25 06:54:19;;;;;;;8.60;3.60;;;;;;;23.44;61.94;100791.05;106645;1256;23114;-67
2023/10/25 06:56:47;;;;;;;9.50;3.50;;;;;;;23.46;61.89;100781.00;106275;1262;24228;-66
2023/10/25 06:59:15;;;;;;;8.80;3.20;;;;;;;23.47;61.63;100775.10;106647;1258;25369;-66
2023/10/25 07:01:43;;;;;;;7.80;3.50;;;;;;;23.48;61.81;100772.91;106892;1265;25365;-66
2023/10/25 07:04:14;;;;;;;8.20;3.70;;;;;;;23.48;61.71;100772.50;107049;1253;25425;-66
2023/10/25 07:06:44;;;;;;;14.90;4.70;;;;;;;23.51;61.69;100762.22;107230;1254;22656;-66
2023/10/25 07:09:14;;;;;;;10.90;4.00;;;;;;;23.53;61.71;100753.40;107117;1251;25366;-68
2023/10/25 07:11:41;;;;;;;15.10;4.40;;;;;;;23.56;61.68;100745.39;106953;1256;25558;-67
2023/10/25 07:14:08;;;;;;;16.10;4.10;;;;;;;23.58;61.69;100742.04;106918;1254;26114;-68
2023/10/25 07:16:36;;;;;;;9.00;3.80;;;;;;;23.61;61.43;100736.99;107124;1251;25417;-66
2023/10/25 07:19:03;;;;;;;10.60;4.10;;;;;;;23.64;61.33;100728.08;107125;1259;24202;-66
2023/10/25 07:21:30;;;;;;;11.80;5.00;;;;;;;23.68;61.29;100717.88;107125;1254;25480;-66
2023/10/25 07:23:57;;;;;;;10.40;4.70;;;;;;;23.71;61.12;100714.23;106773;1261;25454;-66
2023/10/25 07:26:24;;;;;;;10.40;3.20;;;;;;;23.74;61.28;100712.44;107142;1265;25355;-66
2023/10/25 07:28:52;;;;;;;11.00;4.00;;;;;;;23.78;61.08;100715.86;107213;1253;25328;-66
2023/10/25 07:31:19;;;;;;;12.10;4.00;;;;;;;23.82;61.15;100718.71;107166;1264;26657;-66
2023/10/25 07:33:46;;;;;;;9.90;4.10;;;;;;;23.85;60.96;100718.33;107103;1256;25347;-66
2023/10/25 07:36:13;;;;;;;8.30;3.80;;;;;;;23.88;60.76;100718.96;106936;1253;25348;-66
2023/10/25 07:38:43;;;;;;;11.70;4.30;;;;;;;23.91;61.06;100720.16;106840;1265;25356;-67
2023/10/25 07:41:10;;;;;;;16.20;4.60;;;;;;;23.94;60.70;100718.52;107071;1266;25415;-67
2023/10/25 07:43:39;;;;;;;17.00;4.40;;;;;;;23.96;60.79;100719.39;107030;1253;24313;-66
2023/10/25 07:46:07;;;;;;;13.40;4.10;;;;;;;23.98;60.76;100718.15;106909;1254;25413;-66
2023/10/25 07:48:35;;;;;;;22.30;5.90;;;;;;;24.00;60.62;100712.88;106916;1266;25345;-66
2023/10/25 07:51:05;;;;;;;9.70;4.10;;;;;;;24.01;60.55;100703.06;107006;1256;24512;-67
2023/10/25 07:53:32;;;;;;;15.40;4.00;;;;;;;24.01;60.54;100709.23;107112;1256;25358;-65
2023/10/25 07:56:03;;;;;;;13.60;3.90;;;;;;;24.00;60.46;100709.31;107216;1252;25365;-65
2023/10/25 07:58:33;;;;;;;11.60;5.00;;;;;;;23.99;60.60;100710.80;107163;1256;25255;-65
2023/10/25 08:01:00;;;;;;;8.70;3.80;;;;;;;23.98;60.56;100709.48;107018;1265;25538;-65
2023/10/25 08:03:29;;;;;;;15.80;4.40;;;;;;;23.97;60.50;100707.27;106844;1269;25357;-65
2023/10/25 08:05:56;;;;;;;10.60;4.40;;;;;;;23.96;60.39;100708.05;107090;1258;25310;-66
2023/10/25 08:08:23;;;;;;;13.00;4.80;;;;;;;23.95;60.38;100707.91;107108;1250;25514;-66
2023/10/25 08:10:59;;;;;;;10.30;4.80;;;;;;;23.95;60.53;100714.84;107113;1266;25366;-66
2023/10/25 08:13:26;;;;;;;14.30;4.80;;;;;;;23.95;60.48;100713.40;107151;1259;25385;-66
2023/10/25 08:15:57;;;;;;;11.30;4.90;;;;;;;23.98;60.56;100709.48;107204;1266;25361;-66
2023/10/25 08:18:28;;;;;;;13.60;5.10;;;;;;;24.02;60.61;100709.35;106956;1270;25498;-66
2023/10/25 08:20:56;;;;;;;15.50;5.30;;;;;;;24.06;60.54;100709.22;107175;1263;22985;-67
2023/10/25 08:23:27;;;;;;;12.40;4.80;;;;;;;24.11;60.58;100707.04;106922;1271;22960;-65
2023/10/25 08:26:01;;;;;;;13.80;4.80;;;;;;;24.17;60.47;100706.92;107201;1269;25414;-65
2023/10/25 08:28:29;;;;;;;17.10;4.60;;;;;;;24.23;60.11;100705.20;107116;1250;22524;-66
2023/10/25 08:30:56;;;;;;;14.80;5.30;;;;;;;24.29;60.04;100707.98;107101;1266;25463;-65
2023/10/25 08:33:23;;;;;;;20.70;5.30;;;;;;;24.33;59.96;100714.22;107087;1266;25397;-65
2023/10/25 08:36:03;;;;;;;16.20;6.00;;;;;;;24.36;59.89;100718.04;107042;1255;25382;-67
2023/10/25 08:38:31;;;;;;;12.40;4.90;;;;;;;24.37;59.86;100718.66;107171;1256;25351;-67
2023/10/25 08:41:05;;;;;;;18.60;5.70;;;;;;;24.37;59.60;100717.39;107054;1266;24351;-66
2023/10/25 08:43:33;;;;;;;14.40;5.20;;;;;;;24.37;59.73;100718.81;106959;1259;25338;-64
2023/10/25 08:46:03;;;;;;;15.60;5.40;;;;;;;24.37;59.58;100721.52;107089;1266;24251;-68
2023/10/25 08:48:32;;;;;;;20.00;6.10;;;;;;;24.35;59.54;100723.77;107103;1256;24228;-66
2023/10/25 08:51:00;;;;;;;15.00;5.80;;;;;;;24.34;59.74;100720.02;107149;1253;25410;-69
2023/10/25 08:53:28;;;;;;;15.80;6.40;;;;;;;24.31;59.59;100720.89;107204;1260;24187;-67
2023/10/25 08:55:57;;;;;;;12.40;7.30;;;;;;;24.30;59.53;100714.45;107125;1265;25389;-67
2023/10/25 08:58:24;;;;;;;13.50;7.30;;;;;;;24.29;59.66;100703.20;107014;1266;25501;-68
2023/10/25 09:00:52;;;;;;;11.60;7.00;;;;;;;24.28;59.60;100699.02;107089;1250;22606;-66
2023/10/25 09:03:31;;;;;;;14.40;6.70;;;;;;;24.27;59.48;100689.66;107093;1266;25351;-67
2023/10/25 09:05:59;;;;;;;18.80;7.80;;;;;;;24.26;59.59;100679.27;107232;1265;22532;-66
2023/10/25 09:08:26;;;;;;;17.80;8.00;;;;;;;24.25;59.68;100665.70;106982;1266;25810;-67
2023/10/25 09:11:00;;;;;;;17.30;7.50;;;;;;;24.23;59.58;100655.18;106978;1254;24186;-67
2023/10/25 09:13:32;;;;;;;13.30;7.10;;;;;;;24.21;59.45;100641.41;106923;1266;22536;-68
2023/10/25 09:16:03;;;;;;;;;;;;;;;24.17;59.54;100637.98;106909;1266;24215;-66
2023/10/25 09:18:32;;;;;;;20.30;8.10;;;;;;;24.13;59.73;100628.20;107016;1269;22772;-66
2023/10/25 09:21:01;;;;;;;15.90;7.70;;;;;;;24.08;59.92;100624.68;106927;1266;25363;-66
2023/10/25 09:23:39;;;;;;;20.60;9.20;;;;;;;24.04;60.24;100624.84;106699;1266;25443;-67
2023/10/25 09:26:18;;;;;;;15.40;8.90;;;;;;;24.00;60.35;100625.30;107197;1266;25501;-67
2023/10/25 09:28:47;;;;;;;13.20;8.70;;;;;;;23.97;60.44;100618.63;107024;1266;25369;-66
2023/10/25 09:31:29;;;;;;;20.30;9.60;;;;;;;23.94;60.34;100614.70;107031;1266;24187;-66
2023/10/25 09:33:57;;;;;;;16.60;9.20;;;;;;;23.90;60.50;100602.02;107156;1265;22523;-67
2023/10/25 09:36:25;;;;;;;19.20;9.30;;;;;;;23.89;60.50;100569.85;107214;1266;25362;-65
2023/10/25 09:38:53;;;;;;;23.00;10.10;;;;;;;23.86;60.86;100551.84;107054;1266;24326;-67
2023/10/25 09:41:20;;;;;;;20.60;11.20;;;;;;;23.85;60.97;100555.18;107069;1265;23305;-66
2023/10/25 09:43:49;;;;;;;16.80;9.90;;;;;;;23.85;60.96;100553.77;107086;1272;22530;-66
2023/10/25 09:46:20;;;;;;;24.80;10.60;;;;;;;23.85;61.10;100535.69;106920;1266;25351;-66
2023/10/25 09:49:04;;;;;;;16.80;10.10;;;;;;;23.85;61.03;100524.16;106880;1266;22645;-67
2023/10/25 09:51:34;;;;;;;15.30;9.80;;;;;;;23.85;60.98;100526.27;106954;1267;24266;-66
2023/10/25 09:54:09;;;;;;;23.30;9.80;;;;;;;23.84;60.86;100531.33;106891;1266;25440;-67
2023/10/25 09:56:36;;;;;;;18.70;10.70;;;;;;;23.83;61.01;100526.77;106901;1267;25517;-66
2023/10/25 09:59:08;;;;;;;19.20;10.30;;;;;;;23.83;60.98;100522.69;107049;1251;25348;-67
2023/10/25 10:01:35;;;;;;;16.80;9.70;;;;;;;23.82;60.82;100536.81;107121;1266;25406;-66
2023/10/25 10:04:10;;;;;;;20.20;10.70;;;;;;;23.80;61.03;100537.83;107113;1267;25369;-66
2023/10/25 10:06:47;;;;;;;23.30;10.70;;;;;;;23.79;61.07;100535.04;107176;1265;25415;-66
2023/10/25 10:09:33;;;;;;;14.90;10.70;;;;;;;23.80;61.25;100529.85;107113;1266;25404;-67
2023/10/25 10:12:07;;;;;;;16.80;10.60;;;;;;;23.80;61.08;100510.19;107192;1266;25410;-67
2023/10/25 10:14:35;;;;;;;21.70;11.10;;;;;;;23.79;61.19;100495.00;107094;1266;25405;-66
2023/10/25 10:17:06;;;;;;;20.10;10.70;;;;;;;23.80;61.10;100483.48;107184;1265;25512;-67
2023/10/25 10:19:37;;;;;;;17.10;10.40;;;;;;;23.79;61.15;100481.02;107128;1266;25396;-66
2023/10/25 10:22:09;;;;;;;17.40;10.40;;;;;;;23.80;61.05;100476.23;106977;1266;25399;-65
2023/10/25 10:24:58;;;;;;;18.40;10.00;;;;;;;23.79;61.16;100477.49;107037;1265;25479;-67
2023/10/25 10:27:26;;;;;;;17.40;10.00;;;;;;;23.79;61.07;100464.59;107125;1266;24214;-67
2023/10/25 10:29:53;;;;;;;17.60;10.70;;;;;;;23.80;61.20;100460.44;107144;1252;26513;-66
2023/10/25 10:32:21;;;;;;;20.40;10.90;;;;;;;23.81;61.12;100461.40;107026;1269;25440;-67
2023/10/25 10:34:57;;;;;;;22.00;10.50;;;;;;;23.83;61.15;100461.39;107083;1266;25382;-67
2023/10/25 10:37:25;;;;;;;20.80;11.20;;;;;;;23.88;61.21;100465.66;107099;1266;22522;-67
2023/10/25 10:39:55;;;;;;;23.60;10.80;;;;;;;23.92;60.97;100470.03;106970;1260;25376;-67
2023/10/25 10:42:41;;;;;;;18.80;11.90;;;;;;;23.97;60.86;100465.25;107224;1266;25406;-67
2023/10/25 10:45:14;;;;;;;23.10;11.60;;;;;;;24.01;60.59;100473.20;107153;1253;25367;-67
2023/10/25 10:47:48;;;;;;;24.00;11.40;;;;;;;24.06;60.55;100474.27;106986;1250;22648;-67
2023/10/25 10:50:22;;;;;;;25.80;11.50;;;;;;;24.10;60.47;100478.49;107172;1253;23643;-67
2023/10/25 10:52:50;;;;;;;18.40;12.10;;;;;;;24.15;60.45;100472.73;106988;1266;25385;-65
2023/10/25 10:55:22;;;;;;;21.00;11.80;;;;;;;24.19;60.37;100473.47;106664;1273;25428;-67
2023/10/25 10:57:49;;;;;;;21.20;11.70;;;;;;;24.23;60.27;100475.61;106877;1266;25443;-66
2023/10/25 11:00:44;;;;;;;18.80;11.50;;;;;;;24.28;60.00;100471.90;107042;1265;25476;-66
2023/10/25 11:03:11;;;;;;;24.30;11.80;;;;;;;24.31;60.09;100471.29;107126;1265;25264;-66
2023/10/25 11:05:38;;;;;;;19.70;12.20;;;;;;;24.34;59.87;100472.13;106781;1266;25389;-67
2023/10/25 11:08:11;;;;;;;19.90;11.30;;;;;;;24.36;59.79;100467.21;107076;1253;25428;-68
2023/10/25 11:10:38;;;;;;;24.50;12.40;;;;;;;24.37;59.48;100460.75;107130;1266;24228;-67
2023/10/25 11:13:09;;;;;;;23.30;12.00;;;;;;;24.37;59.50;100457.30;106952;1272;25385;-67
2023/10/25 11:15:36;;;;;;;26.00;12.30;;;;;;;24.38;59.71;100452.65;106991;1269;24340;-67
2023/10/25 11:18:10;;;;;;;22.70;11.80;;;;;;;24.39;59.66;100453.41;107043;1266;25443;-66
2023/10/25 11:20:39;;;;;;;27.00;12.30;;;;;;;24.41;59.76;100444.64;107083;1268;25424;-67